Darstellungsparameter: Aktuell verwendete Einstellungen:
Skalierung der Graphiken ... ?
xyx+y,   Skalierungsfaktor:      Skalierung: Modus: x, Faktor: 1
Darstellungszeitraum ... ?
Vom - - bis: - -   Zeitraum: 01.01.2012 - 31.12.2013
Min/Max/Avg-Anzeige ... ?
Zeige MMA aktuell
Zeige MMA Monat
Zeige MMA alles
Zeige --A aktuell
Zeige --A Monat
Zeige --A alles
Keine MMA-Anzeige
MMA:
Keine MMA-Graphiken
MMA-Basis: 01.01.2012 - 31.12.2013
Quicknavigation für Darstellung... ?
Tage:      1T, 2T, 3T, 5T -1T -2T -3T -5T +1T +2T +3T +5T
Wochen: 1W, 2W, 3W -1W -2W -3W +1W +2W +3W
Monate: 1M, 3M, 6M -1M -3M -6M +1M +3M +6M
Jahre:    1J, 3J, 5J, 10J -1J -3J -5J -10J +1J +3J +5J +10J
Nutze für die Darstellung ... ?
Originaldaten oder ...
Mittelwerte Minima Maxima auf...
Stundenbasis Tagesbasis Wochenbasis
Monatsbasis Jahresbasis      Datenbasis: Mittelwerte auf Tagesbasis
Darstellen als:
Statistik (Auto) Statistik J:M      Darstellung:
Zur Graphik,    zurück zur Übersicht aller Sensoren.
 
Tabellarische Datenbersicht: ?
 
Sensor: Nr:Datum:Temp:Feuchte:Taupunkt:
Aussen-T/F 1 01-01-2012 00:00:00 12.02807 C 88.3754 % 10.17 C
2 02-01-2012 00:00:00 8.87847 C 88.2917 % 7.05 C
3 03-01-2012 00:00:00 7.43403 C 81.7917 % 4.53 C
4 04-01-2012 00:00:00 6.56875 C 76.5174 % 2.75 C
5 05-01-2012 00:00:00 6.88368 C 80.3785 % 3.75 C
6 06-01-2012 00:00:00 5.40208 C 81.6389 % 2.52 C
7 07-01-2012 00:00:00 5.54653 C 84.9201 % 3.22 C
8 08-01-2012 00:00:00 5.96042 C 84.6111 % 3.57 C
9 09-01-2012 00:00:00 6.11424 C 89.9479 % 4.59 C
10 10-01-2012 00:00:00 6.93056 C 91.1319 % 5.59 C
11 11-01-2012 00:00:00 8.11597 C 82.0938 % 5.25 C
12 12-01-2012 00:00:00 8.18819 C 82.4028 % 5.37 C
13 13-01-2012 00:00:00 5.12569 C 75.8264 % 1.22 C
14 14-01-2012 00:00:00 3.95417 C 78.8958 % 0.63 C
15 15-01-2012 00:00:00 -0.23715 C 94.8993 % -0.95 C
16 16-01-2012 00:00:00 -1.80312 C 94.0521 % -2.63 C
17 17-01-2012 00:00:00 -2.78368 C 92.5069 % -3.83 C
18 18-01-2012 00:00:00 -0.12708 C 89.9653 % -1.57 C
19 19-01-2012 00:00:00 6.67639 C 90.1007 % 5.17 C
20 20-01-2012 00:00:00 4.025 C 86.9236 % 2.05 C
21 21-01-2012 00:00:00 5.73681 C 89.5382 % 4.15 C
22 22-01-2012 00:00:00 6.85764 C 76.0660 % 2.94 C
23 23-01-2012 00:00:00 5.22708 C 82.6806 % 2.53 C
24 24-01-2012 00:00:00 3.1191 C 90.7222 % 1.75 C
25 25-01-2012 00:00:00 0.47708 C 94.7813 % -0.26 C
Sensor: Nr:Datum:Temp:Feuchte:Taupunkt:
Aussen-T/F 26 26-01-2012 00:00:00 1.84132 C 84.3368 % -0.51 C
27 27-01-2012 00:00:00 2.58437 C 92.0104 % 1.42 C
28 28-01-2012 00:00:00 2.69896 C 87.8090 % 0.89 C
29 29-01-2012 00:00:00 0.84583 C 81.3299 % -1.98 C
30 30-01-2012 00:00:00 -0.00208 C 80.3854 % -2.97 C
31 31-01-2012 00:00:00 -1.90972 C 70.0243 % -6.64 C
32 01-02-2012 00:00:00 -5.28403 C 61.1667 % -11.58 C
33 02-02-2012 00:00:00 -7.12396 C 51.7535 % -15.35 C
34 03-02-2012 00:00:00 -8.52361 C 68.2153 % -13.32 C
35 04-02-2012 00:00:00 -8.31389 C 77.7396 % -11.5 C
36 05-02-2012 00:00:00 -9.04861 C 72.3715 % -13.1 C
37 06-02-2012 00:00:00 -9.67674 C 69.6979 % -14.16 C
38 07-02-2012 00:00:00 -9.19832 C 69.3067 % -13.77 C
39 08-02-2012 00:00:00 -5.57083 C 72.6528 % -9.69 C
40 09-02-2012 00:00:00 -7.39479 C 86.5868 % -9.24 C
41 10-02-2012 00:00:00 -6.11875 C 75.6354 % -9.71 C
42 11-02-2012 00:00:00 -8.24931 C 70.5451 % -12.64 C
43 12-02-2012 00:00:00 -6.58063 C 72.4466 % -10.7 C
44 13-02-2012 00:00:00 -0.88993 C 82.6458 % -3.46 C
45 14-02-2012 00:00:00 1.59931 C 93.4410 % 0.66 C
46 15-02-2012 00:00:00 3.97674 C 86.0694 % 1.86 C
47 16-02-2012 00:00:00 3.54896 C 91.1875 % 2.25 C
48 17-02-2012 00:00:00 5.57917 C 87.8576 % 3.73 C
49 18-02-2012 00:00:00 6.37083 C 88.0556 % 4.54 C
50 19-02-2012 00:00:00 2.99271 C 87.9861 % 1.2 C
Sensor: Nr:Datum:Temp:Feuchte:Taupunkt:
Aussen-T/F 51 20-02-2012 00:00:00 1.18333 C 84.9583 % -1.06 C
52 21-02-2012 00:00:00 1.84583 C 78.4063 % -1.5 C
53 22-02-2012 00:00:00 3.17951 C 81.1493 % 0.27 C
54 23-02-2012 00:00:00 6.17352 C 81.6864 % 3.28 C
55 24-02-2012 00:00:00 9.38101 C 86.6938 % 7.28 C
56 25-02-2012 00:00:00 8.6186 C 80.9439 % 5.54 C
57 26-02-2012 00:00:00 5.29167 C 88.4757 % 3.55 C
58 27-02-2012 00:00:00 5.81944 C 83.3333 % 3.22 C
59 28-02-2012 00:00:00 8.57639 C 85.4861 % 6.28 C
60 29-02-2012 00:00:00 9.49583 C 92.3403 % 8.32 C
61 01-03-2012 00:00:00 9.01563 C 93.6979 % 8.06 C
62 02-03-2012 00:00:00 8.57986 C 92.6771 % 7.46 C
63 03-03-2012 00:00:00 7.91597 C 90.3438 % 6.43 C
64 04-03-2012 00:00:00 8.65625 C 81.6354 % 5.7 C
65 05-03-2012 00:00:00 5.81597 C 77.6597 % 2.22 C
66 06-03-2012 00:00:00 5.43924 C 73.2222 % 1.04 C
67 07-03-2012 00:00:00 2.91784 C 81.1970 % 0.02 C
68 08-03-2012 00:00:00 5.35833 C 80.5347 % 2.29 C
69 09-03-2012 00:00:00 4.88437 C 78.4410 % 1.46 C
70 10-03-2012 00:00:00 8.58723 C 78.8759 % 5.14 C
71 11-03-2012 00:00:00 9.26151 C 82.9496 % 6.52 C
72 12-03-2012 00:00:00 8.06347 C 86.5240 % 5.96 C
73 13-03-2012 00:00:00 7.68299 C 83.6458 % 5.1 C
74 14-03-2012 00:00:00 6.93542 C 78.8819 % 3.53 C
75 15-03-2012 00:00:00 7.07812 C 79.2431 % 3.73 C
Sensor: Nr:Datum:Temp:Feuchte:Taupunkt:
Aussen-T/F 76 16-03-2012 00:00:00 10.0412 C 69.7077 % 4.77 C
77 17-03-2012 00:00:00 9.42917 C 75.0799 % 5.24 C
78 18-03-2012 00:00:00 8.64931 C 83.8368 % 6.07 C
79 19-03-2012 00:00:00 7.34303 C 72.1270 % 2.66 C
80 20-03-2012 00:00:00 6.68807 C 68.1687 % 1.25 C
81 21-03-2012 00:00:00 7.73902 C 69.3206 % 2.49 C
82 22-03-2012 00:00:00 10.04583 C 71.3403 % 5.1 C
83 23-03-2012 00:00:00 11.69132 C 71.9826 % 6.82 C
84 24-03-2012 00:00:00 11.62674 C 70.9132 % 6.54 C
85 25-03-2012 00:00:00 12.80873 C 62.8291 % 5.91 C
86 26-03-2012 00:00:00 11.16806 C 58.5764 % 3.36 C
87 27-03-2012 00:00:00 11.10694 C 65.9826 % 5 C
88 28-03-2012 00:00:00 11.74201 C 67.7188 % 5.98 C
89 29-03-2012 00:00:00 9.58194 C 71.1354 % 4.62 C
90 30-03-2012 00:00:00 9.39062 C 79.1701 % 5.97 C
91 31-03-2012 00:00:00 7.98706 C 76.3042 % 4.08 C
92 01-04-2012 00:00:00 4.77396 C 63.6736 % -1.51 C
93 02-04-2012 00:00:00 6.69514 C 71.1493 % 1.85 C
94 03-04-2012 00:00:00 11.08125 C 62.9931 % 4.31 C
95 04-04-2012 00:00:00 9.89722 C 82.2743 % 7.02 C
96 05-04-2012 00:00:00 7.74514 C 80.8958 % 4.68 C
97 06-04-2012 00:00:00 7.88292 C 67.6655 % 2.28 C
98 07-04-2012 00:00:00 5.61389 C 72.7882 % 1.13 C
99 08-04-2012 00:00:00 5.19194 C 54.1941 % -3.29 C
100 09-04-2012 00:00:00 7.24583 C 83.3264 % 4.61 C
Sensor: Nr:Datum:Temp:Feuchte:Taupunkt:
Aussen-T/F 101 10-04-2012 00:00:00 11.25451 C 77.8646 % 7.54 C
102 11-04-2012 00:00:00 9.71215 C 72.8056 % 5.08 C
103 12-04-2012 00:00:00 6.41736 C 84.4444 % 3.99 C
104 13-04-2012 00:00:00 6.76632 C 81.2847 % 3.79 C
105 14-04-2012 00:00:00 7.83021 C 71.5486 % 3.02 C
106 15-04-2012 00:00:00 8.52361 C 73.9826 % 4.16 C
107 16-04-2012 00:00:00 5.92438 C 63.9835 % -0.36 C
108 17-04-2012 00:00:00 5.90382 C 59.8090 % -1.3 C
109 18-04-2012 00:00:00 8.72674 C 72.5451 % 4.08 C
110 19-04-2012 00:00:00 8.47422 C 80.8084 % 5.37 C
111 20-04-2012 00:00:00 7.34574 C 84.4529 % 4.9 C
112 21-04-2012 00:00:00 8.16701 C 81.3229 % 5.16 C
113 22-04-2012 00:00:00 7.84306 C 80.2049 % 4.65 C
114 23-04-2012 00:00:00 8.39097 C 79.6389 % 5.08 C
115 24-04-2012 00:00:00 8.89757 C 84.6181 % 6.45 C
116 25-04-2012 00:00:00 10.14167 C 78.2292 % 6.53 C
117 26-04-2012 00:00:00 11.47083 C 79.8958 % 8.13 C
118 27-04-2012 00:00:00 12.5625 C 82.5104 % 9.67 C
119 28-04-2012 00:00:00 18.10903 C 72.5139 % 13.09 C
120 29-04-2012 00:00:00 16.89826 C 73.1979 % 12.07 C
121 30-04-2012 00:00:00 17.93194 C 63.6007 % 10.94 C
122 01-05-2012 00:00:00 17.12465 C 71.7708 % 11.99 C
123 02-05-2012 00:00:00 15.24479 C 86.9549 % 13.09 C
124 03-05-2012 00:00:00 13.43472 C 77.5035 % 9.59 C
125 04-05-2012 00:00:00 14.57083 C 73.6806 % 9.93 C
Sensor: Nr:Datum:Temp:Feuchte:Taupunkt:
Aussen-T/F 126 05-05-2012 00:00:00 11.45069 C 92.9271 % 10.35 C
127 06-05-2012 00:00:00 10.57674 C 92.8021 % 9.46 C
128 07-05-2012 00:00:00 10.38681 C 83.5556 % 7.73 C
129 08-05-2012 00:00:00 13.89063 C 73.1215 % 9.16 C
130 09-05-2012 00:00:00 16.78229 C 82.0903 % 13.71 C
131 10-05-2012 00:00:00 19.11111 C 78.7257 % 15.33 C
132 11-05-2012 00:00:00 19.125 C 80.7014 % 15.73 C
133 12-05-2012 00:00:00 11.31289 C 69.8188 % 6.01 C
134 13-05-2012 00:00:00 9.38646 C 66.5382 % 3.48 C
135 14-05-2012 00:00:00 11.40799 C 62.7778 % 4.57 C
136 15-05-2012 00:00:00 9.5625 C 74.6979 % 5.3 C
137 16-05-2012 00:00:00 8.66597 C 76.0417 % 4.69 C
138 17-05-2012 00:00:00 9.38889 C 67.5799 % 3.7 C
139 18-05-2012 00:00:00 12.68299 C 77.1667 % 8.79 C
140 19-05-2012 00:00:00 15.71389 C 82.6667 % 12.77 C
141 20-05-2012 00:00:00 17.6684 C 78.6076 % 13.91 C
142 21-05-2012 00:00:00 18.52986 C 81.4410 % 15.29 C
143 22-05-2012 00:00:00 21.31944 C 73.3576 % 16.36 C
144 23-05-2012 00:00:00 18.79965 C 89.2743 % 17 C
145 24-05-2012 00:00:00 20.69687 C 73.7639 % 15.85 C
146 25-05-2012 00:00:00 19.45313 C 48.2882 % 8.25 C
147 26-05-2012 00:00:00 18.11007 C 54.3056 % 8.75 C
148 27-05-2012 00:00:00 18.05868 C 62.2743 % 10.74 C
149 28-05-2012 00:00:00 18.93417 C 63.8705 % 11.95 C
150 29-05-2012 00:00:00 18.46288 C 64.9508 % 11.76 C
Sensor: Nr:Datum:Temp:Feuchte:Taupunkt:
Aussen-T/F 151 30-05-2012 00:00:00 17.68438 C 78.7569 % 13.95 C
152 31-05-2012 00:00:00 16.03021 C 84.4167 % 13.4 C
153 01-06-2012 00:00:00 15.74271 C 76.1632 % 11.56 C
154 02-06-2012 00:00:00 15.19271 C 70.5938 % 9.89 C
155 03-06-2012 00:00:00 12.60255 C 88.8727 % 10.82 C
156 04-06-2012 00:00:00 13.31389 C 85.8576 % 11 C
157 05-06-2012 00:00:00 12.15312 C 69.0486 % 6.65 C
158 06-06-2012 00:00:00 13.09444 C 86.8056 % 10.95 C
159 07-06-2012 00:00:00 16.45799 C 88.8576 % 14.62 C
160 08-06-2012 00:00:00 17.34097 C 72.3854 % 12.33 C
161 09-06-2012 00:00:00 14.79028 C 66.1215 % 8.53 C
162 10-06-2012 00:00:00 15.29514 C 66.6736 % 9.14 C
163 11-06-2012 00:00:00 14.57014 C 84.7083 % 12.03 C
164 12-06-2012 00:00:00 14.40729 C 86.0764 % 12.11 C
165 13-06-2012 00:00:00 12.57363 C 92.7692 % 11.44 C
166 14-06-2012 00:00:00 14.15694 C 81.5104 % 11.04 C
167 15-06-2012 00:00:00 16.11806 C 85.0833 % 13.61 C
168 16-06-2012 00:00:00 15.40799 C 92.7326 % 14.24 C
169 17-06-2012 00:00:00 17.28021 C 70.4549 % 11.86 C
170 18-06-2012 00:00:00 18.57292 C 74.0694 % 13.87 C
171 19-06-2012 00:00:00 17.44028 C 82.5590 % 14.44 C
172 20-06-2012 00:00:00 16.35833 C 96.8785 % 15.86 C
173 21-06-2012 00:00:00 18.41354 C 89.4583 % 16.65 C
174 22-06-2012 00:00:00 16.36181 C 75.7083 % 12.07 C
175 23-06-2012 00:00:00 16.63472 C 71.3924 % 11.44 C
Sensor: Nr:Datum:Temp:Feuchte:Taupunkt:
Aussen-T/F 176 24-06-2012 00:00:00 14.73507 C 82.4306 % 11.78 C
177 25-06-2012 00:00:00 15.09028 C 78.7917 % 11.44 C
178 26-06-2012 00:00:00 16.43125 C 73.6111 % 11.71 C
179 27-06-2012 00:00:00 18.07569 C 84.8264 % 15.48 C
180 28-06-2012 00:00:00 21.87465 C 80.2743 % 18.32 C
181 29-06-2012 00:00:00 20.49063 C 90.0868 % 18.81 C
182 30-06-2012 00:00:00 20.14965 C 78.6563 % 16.32 C
183 01-07-2012 00:00:00 17.98889 C 81.2882 % 14.74 C
184 02-07-2012 00:00:00 15.24444 C 86.4826 % 13 C
185 03-07-2012 00:00:00 18.02153 C 76.9132 % 13.91 C
186 04-07-2012 00:00:00 19.87465 C 76.5000 % 15.62 C
187 05-07-2012 00:00:00 19.09722 C 91.7153 % 17.72 C
188 06-07-2012 00:00:00 19.21042 C 82.2708 % 16.11 C
189 07-07-2012 00:00:00 19.57743 C 72.4514 % 14.49 C
190 08-07-2012 00:00:00 17.84097 C 81.3542 % 14.6 C
191 09-07-2012 00:00:00 18.63611 C 72.1944 % 13.53 C
192 10-07-2012 00:00:00 19.1441 C 76.7604 % 14.97 C
193 11-07-2012 00:00:00 16.03394 C 79.6861 % 12.53 C
194 12-07-2012 00:00:00 14.8191 C 77.8715 % 11 C
195 13-07-2012 00:00:00 15.50417 C 89.5694 % 13.8 C
196 14-07-2012 00:00:00 15.27708 C 87.8125 % 13.27 C
197 15-07-2012 00:00:00 14.52014 C 86.8542 % 12.36 C
198 16-07-2012 00:00:00 15.02292 C 79.1840 % 11.45 C
199 17-07-2012 00:00:00 17.55035 C 76.7431 % 13.42 C
200 18-07-2012 00:00:00 19.89649 C 72.5088 % 14.81 C
Sensor: Nr:Datum:Temp:Feuchte:Taupunkt:
Aussen-T/F 201 19-07-2012 00:00:00 18.18194 C 70.2743 % 12.68 C
202 20-07-2012 00:00:00 14.85872 C 85.6406 % 12.48 C
203 21-07-2012 00:00:00 15.04167 C 80.6493 % 11.74 C
204 22-07-2012 00:00:00 14.62049 C 74.5139 % 10.15 C
205 23-07-2012 00:00:00 17.15069 C 68.0972 % 11.22 C
206 24-07-2012 00:00:00 19.81701 C 70.4826 % 14.3 C
207 25-07-2012 00:00:00 22.11408 C 72.7218 % 16.99 C
208 26-07-2012 00:00:00 23.10764 C 73.2326 % 18.05 C
209 27-07-2012 00:00:00 22.2566 C 82.8021 % 19.19 C
210 28-07-2012 00:00:00 19.03507 C 92.5660 % 17.8 C
211 29-07-2012 00:00:00 17.61875 C 75.5799 % 13.26 C
212 30-07-2012 00:00:00 16.17396 C 70.1250 % 10.73 C
213 31-07-2012 00:00:00 16.33993 C 79.2778 % 12.75 C
214 01-08-2012 00:00:00 20.08194 C 75.0521 % 15.52 C
215 02-08-2012 00:00:00 20.75938 C 75.0938 % 16.19 C
216 03-08-2012 00:00:00 19.31771 C 71.6042 % 14.06 C
217 04-08-2012 00:00:00 19.1 C 71.9653 % 13.93 C
218 05-08-2012 00:00:00 19.0875 C 83.3889 % 16.21 C
219 06-08-2012 00:00:00 18.40312 C 78.4965 % 14.6 C
220 07-08-2012 00:00:00 17.15556 C 73.1701 % 12.31 C
221 08-08-2012 00:00:00 16.59132 C 79.3229 % 13 C
222 09-08-2012 00:00:00 18.49479 C 77.0868 % 14.41 C
223 10-08-2012 00:00:00 17.33299 C 71.4028 % 12.11 C
224 11-08-2012 00:00:00 16.29444 C 73.2604 % 11.5 C
225 12-08-2012 00:00:00 17.40486 C 68.6181 % 11.58 C
Sensor: Nr:Datum:Temp:Feuchte:Taupunkt:
Aussen-T/F 226 13-08-2012 00:00:00 18.22326 C 73.1944 % 13.35 C
227 14-08-2012 00:00:00 19.78993 C 79.0521 % 16.05 C
228 15-08-2012 00:00:00 22.31354 C 70.9549 % 16.79 C
229 16-08-2012 00:00:00 21.27535 C 67.3125 % 14.97 C
230 17-08-2012 00:00:00 20.12986 C 70.1146 % 14.51 C
231 18-08-2012 00:00:00 23.0066 C 67.4271 % 16.65 C
232 19-08-2012 00:00:00 24.67083 C 69.9722 % 18.82 C
233 20-08-2012 00:00:00 23.43229 C 80.3090 % 19.84 C
234 21-08-2012 00:00:00 22.6875 C 81.6771 % 19.39 C
235 22-08-2012 00:00:00 20.95729 C 64.6042 % 14.04 C
236 23-08-2012 00:00:00 17.78194 C 65.1285 % 11.15 C
237 24-08-2012 00:00:00 18.62842 C 81.4105 % 15.38 C
238 25-08-2012 00:00:00 18.46493 C 78.6458 % 14.69 C
239 26-08-2012 00:00:00 16.26667 C 78.3021 % 12.49 C
240 27-08-2012 00:00:00 16.32049 C 79.0486 % 12.68 C
241 28-08-2012 00:00:00 18.03507 C 74.6076 % 13.46 C
242 29-08-2012 00:00:00 20.02396 C 77.5486 % 15.98 C
243 30-08-2012 00:00:00 17.48889 C 81.0208 % 14.2 C
244 31-08-2012 00:00:00 13.93646 C 84.9132 % 11.44 C
245 01-09-2012 00:00:00 14.49236 C 76.3785 % 10.39 C
246 02-09-2012 00:00:00 13.96285 C 82.2604 % 10.99 C
247 03-09-2012 00:00:00 16.22222 C 79.7535 % 12.72 C
248 04-09-2012 00:00:00 16.86098 C 82.0105 % 13.77 C
249 05-09-2012 00:00:00 16.4125 C 79.7500 % 12.91 C
250 06-09-2012 00:00:00 14.63604 C 70.9187 % 9.42 C
Sensor: Nr:Datum:Temp:Feuchte:Taupunkt:
Aussen-T/F 251 07-09-2012 00:00:00 14.4309 C 73.8368 % 9.83 C
252 08-09-2012 00:00:00 16.83403 C 70.1076 % 11.36 C
253 09-09-2012 00:00:00 18.54722 C 68.1563 % 12.57 C
254 10-09-2012 00:00:00 19.67847 C 67.2465 % 13.44 C
255 11-09-2012 00:00:00 17.74028 C 83.6910 % 14.95 C
256 12-09-2012 00:00:00 11.13646 C 93.3750 % 10.11 C
257 13-09-2012 00:00:00 10.78611 C 90.3368 % 9.27 C
258 14-09-2012 00:00:00 13.01424 C 83.7639 % 10.33 C
259 15-09-2012 00:00:00 13.44514 C 88.4410 % 11.57 C
260 16-09-2012 00:00:00 13.24236 C 85.5903 % 10.88 C
261 17-09-2012 00:00:00 15.15729 C 83.0208 % 12.3 C
262 18-09-2012 00:00:00 14.10868 C 84.2188 % 11.49 C
263 19-09-2012 00:00:00 11.7684 C 70.2292 % 6.53 C
264 20-09-2012 00:00:00 9.9566 C 72.9271 % 5.33 C
265 21-09-2012 00:00:00 10.62118 C 79.5069 % 7.23 C
266 22-09-2012 00:00:00 11.53611 C 80.2917 % 8.26 C
267 23-09-2012 00:00:00 11.58819 C 78.6007 % 8 C
268 24-09-2012 00:00:00 14.89201 C 84.5486 % 12.31 C
269 25-09-2012 00:00:00 12.86597 C 88.1563 % 10.96 C
270 26-09-2012 00:00:00 12.27917 C 95.0382 % 11.51 C
271 27-09-2012 00:00:00 12.68611 C 88.7257 % 10.88 C
272 28-09-2012 00:00:00 12.56701 C 85.9757 % 10.29 C
273 29-09-2012 00:00:00 11.68819 C 84.0382 % 9.08 C
274 30-09-2012 00:00:00 9.30035 C 89.3681 % 7.64 C
275 01-10-2012 00:00:00 9.46319 C 85.2118 % 7.11 C
Sensor: Nr:Datum:Temp:Feuchte:Taupunkt:
Aussen-T/F 276 02-10-2012 00:00:00 12.25764 C 84.6736 % 9.75 C
277 03-10-2012 00:00:00 14.55312 C 82.0139 % 11.52 C
278 04-10-2012 00:00:00 12.89722 C 83.2569 % 10.13 C
279 05-10-2012 00:00:00 13.57986 C 85.1285 % 11.13 C
280 06-10-2012 00:00:00 14.99065 C 84.0244 % 12.32 C
281 07-10-2012 00:00:00 10.63669 C 85.8058 % 8.36 C
282 08-10-2012 00:00:00 8.1958 C 91.4790 % 6.89 C
283 09-10-2012 00:00:00 10.60348 C 82.4776 % 7.75 C
284 10-10-2012 00:00:00 6.21146 C 91.4826 % 4.93 C
285 11-10-2012 00:00:00 6.67361 C 92.2431 % 5.51 C
286 12-10-2012 00:00:00 10.79653 C 89.9479 % 9.22 C
287 13-10-2012 00:00:00 9.08472 C 85.8854 % 6.85 C
288 14-10-2012 00:00:00 8.15833 C 90.5868 % 6.71 C
289 15-10-2012 00:00:00 7.43264 C 92.8646 % 6.36 C
290 16-10-2012 00:00:00 7.85556 C 89.7188 % 6.27 C
291 17-10-2012 00:00:00 10.85972 C 90.2361 % 9.33 C
292 18-10-2012 00:00:00 14.37569 C 85.3924 % 11.96 C
293 19-10-2012 00:00:00 14.37187 C 89.1111 % 12.6 C
294 20-10-2012 00:00:00 13.74722 C 92.9722 % 12.63 C
295 21-10-2012 00:00:00 13.32917 C 93.7014 % 12.34 C
296 22-10-2012 00:00:00 11.79062 C 93.9931 % 10.86 C
297 23-10-2012 00:00:00 11.38403 C 87.8194 % 9.44 C
298 24-10-2012 00:00:00 9.71528 C 91.8819 % 8.46 C
299 25-10-2012 00:00:00 9.9441 C 92.9271 % 8.85 C
300 26-10-2012 00:00:00 6.73542 C 93.3472 % 5.74 C
Sensor: Nr:Datum:Temp:Feuchte:Taupunkt:
Aussen-T/F 301 27-10-2012 00:00:00 2.98993 C 78.3160 % -0.41 C
302 28-10-2012 00:00:00 0.51181 C 90.1007 % -0.92 C
303 29-10-2012 00:00:00 0.69306 C 92.2292 % -0.42 C
304 30-10-2012 00:00:00 6.0566 C 90.8507 % 4.68 C
305 31-10-2012 00:00:00 5.97118 C 91.2778 % 4.66 C
306 01-11-2012 00:00:00 7.64965 C 85.8819 % 5.44 C
307 02-11-2012 00:00:00 7.75417 C 81.4132 % 4.78 C
308 03-11-2012 00:00:00 7.38542 C 94.0104 % 6.49 C
309 04-11-2012 00:00:00 7.74028 C 92.3472 % 6.58 C
310 05-11-2012 00:00:00 8.00382 C 84.4444 % 5.55 C
311 06-11-2012 00:00:00 6.03264 C 87.7708 % 4.16 C
312 07-11-2012 00:00:00 8.52535 C 86.8021 % 6.46 C
313 08-11-2012 00:00:00 8.82222 C 80.7188 % 5.7 C
314 09-11-2012 00:00:00 8.19861 C 83.9444 % 5.65 C
315 10-11-2012 00:00:00 8.89201 C 93.0243 % 7.83 C
316 11-11-2012 00:00:00 8.24097 C 92.3333 % 7.07 C
317 12-11-2012 00:00:00 5.70868 C 88.6701 % 3.99 C
318 13-11-2012 00:00:00 3.26076 C 94.2639 % 2.43 C
319 14-11-2012 00:00:00 2.60312 C 94.3438 % 1.79 C
320 15-11-2012 00:00:00 4.53958 C 88.2361 % 2.77 C
321 16-11-2012 00:00:00 3.22222 C 87.5313 % 1.36 C
322 17-11-2012 00:00:00 4.33472 C 93.4931 % 3.38 C
323 18-11-2012 00:00:00 7.54896 C 95.9792 % 6.95 C
324 19-11-2012 00:00:00 7.68403 C 95.0035 % 6.94 C
325 20-11-2012 00:00:00 5.27188 C 93.6215 % 4.33 C
Sensor: Nr:Datum:Temp:Feuchte:Taupunkt:
Aussen-T/F 326 21-11-2012 00:00:00 4.38681 C 91.7778 % 3.17 C
327 22-11-2012 00:00:00 5.51111 C 94.8819 % 4.76 C
328 23-11-2012 00:00:00 6.88472 C 93.0660 % 5.84 C
329 24-11-2012 00:00:00 9.16042 C 89.4167 % 7.51 C
330 25-11-2012 00:00:00 10.6066 C 72.8889 % 5.95 C
331 26-11-2012 00:00:00 6.01493 C 95.3368 % 5.33 C
332 27-11-2012 00:00:00 7.67986 C 89.1875 % 6.02 C
333 28-11-2012 00:00:00 5.5184 C 91.1563 % 4.19 C
334 29-11-2012 00:00:00 4.01319 C 86.8021 % 2.02 C
335 30-11-2012 00:00:00 1.44375 C 93.9375 % 0.58 C
336 01-12-2012 00:00:00 -0.39861 C 93.9271 % -1.25 C
337 02-12-2012 00:00:00 2.39375 C 89.5035 % 0.85 C
338 03-12-2012 00:00:00 2.27222 C 89.5486 % 0.74 C
339 04-12-2012 00:00:00 3.75312 C 89.4653 % 2.18 C
340 05-12-2012 00:00:00 2.86667 C 90.6389 % 1.49 C
341 06-12-2012 00:00:00 0.5625 C 84.7813 % -1.7 C
342 07-12-2012 00:00:00 -1.00382 C 91.2500 % -2.25 C
343 08-12-2012 00:00:00 -4.66111 C 93.4826 % -5.55 C
344 09-12-2012 00:00:00 0.22326 C 90.9479 % -1.08 C
345 10-12-2012 00:00:00 2.70764 C 86.9965 % 0.77 C
346 11-12-2012 00:00:00 -0.72396 C 86.9514 % -2.62 C
347 12-12-2012 00:00:00 -3.40937 C 85.1563 % -5.54 C
348 13-12-2012 00:00:00 -3.53646 C 88.4896 % -5.16 C
349 14-12-2012 00:00:00 2.76076 C 92.6389 % 1.69 C
350 15-12-2012 00:00:00 6.97153 C 92.2500 % 5.8 C
Sensor: Nr:Datum:Temp:Feuchte:Taupunkt:
Aussen-T/F 351 16-12-2012 00:00:00 6.60868 C 91.0278 % 5.25 C
352 17-12-2012 00:00:00 6.04792 C 93.6910 % 5.11 C
353 18-12-2012 00:00:00 5.04583 C 93.1146 % 4.03 C
354 19-12-2012 00:00:00 3.47361 C 96.2708 % 2.94 C
355 20-12-2012 00:00:00 1.32396 C 93.7708 % 0.43 C
356 21-12-2012 00:00:00 3.19236 C 97.7708 % 2.87 C
357 22-12-2012 00:00:00 6.1691 C 95.2361 % 5.47 C
358 23-12-2012 00:00:00 11.85 C 90.7014 % 10.38 C
359 24-12-2012 00:00:00 11.08715 C 83.9306 % 8.48 C
360 25-12-2012 00:00:00 9.61181 C 81.7431 % 6.65 C
361 26-12-2012 00:00:00 8.15278 C 84.2465 % 5.66 C
362 27-12-2012 00:00:00 7.84757 C 87.0868 % 5.84 C
363 28-12-2012 00:00:00 6.19479 C 93.6806 % 5.25 C
364 29-12-2012 00:00:00 8.19931 C 92.4514 % 7.05 C
365 30-12-2012 00:00:00 8.44618 C 76.8021 % 4.62 C
366 31-12-2012 00:00:00 8.92569 C 76.6319 % 5.05 C
367 01-01-2013 00:00:00 6.59132 C 85.2465 % 4.3 C
368 02-01-2013 00:00:00 4.69861 C 86.2326 % 2.6 C
369 03-01-2013 00:00:00 7.62951 C 90.5069 % 6.18 C
370 04-01-2013 00:00:00 9.87292 C 91.9063 % 8.62 C
371 05-01-2013 00:00:00 7.8816 C 90.6528 % 6.45 C
372 06-01-2013 00:00:00 8.15069 C 89.3438 % 6.51 C
373 07-01-2013 00:00:00 7.30764 C 88.5938 % 5.55 C
374 08-01-2013 00:00:00 6.15417 C 86.4549 % 4.07 C
375 09-01-2013 00:00:00 4.72465 C 87.9271 % 2.9 C
Sensor: Nr:Datum:Temp:Feuchte:Taupunkt:
Aussen-T/F 376 10-01-2013 00:00:00 4.44028 C 90.6840 % 3.05 C
377 11-01-2013 00:00:00 1.09201 C 80.8958 % -1.81 C
378 12-01-2013 00:00:00 -2.64514 C 86.8611 % -4.53 C
379 13-01-2013 00:00:00 -3.28368 C 83.3715 % -5.69 C
380 14-01-2013 00:00:00 -4.44028 C 89.7431 % -5.87 C
381 15-01-2013 00:00:00 -2.1941 C 89.2222 % -3.72 C
382 16-01-2013 00:00:00 -2.65521 C 90.0208 % -4.06 C
383 17-01-2013 00:00:00 -2.48542 C 88.3472 % -4.14 C
384 18-01-2013 00:00:00 -1.70729 C 86.0417 % -3.73 C
385 19-01-2013 00:00:00 -2.39375 C 81.1181 % -5.18 C
386 20-01-2013 00:00:00 -3.06146 C 87.3229 % -4.87 C
387 21-01-2013 00:00:00 -0.75938 C 92.5590 % -1.81 C
388 22-01-2013 00:00:00 -1.20382 C 91.8194 % -2.36 C
389 23-01-2013 00:00:00 -1.0566 C 91.6736 % -2.24 C
390 24-01-2013 00:00:00 -2.40833 C 86.2639 % -4.38 C
391 25-01-2013 00:00:00 -2.18368 C 84.2292 % -4.48 C
392 26-01-2013 00:00:00 -1.99549 C 84.4306 % -4.26 C
393 27-01-2013 00:00:00 2.22882 C 88.1528 % 0.48 C
394 28-01-2013 00:00:00 3.96389 C 87.7361 % 2.12 C
395 29-01-2013 00:00:00 9.00868 C 87.2743 % 7.01 C
396 30-01-2013 00:00:00 11.32361 C 82.5660 % 8.47 C
397 31-01-2013 00:00:00 7.765 C 75.5864 % 3.73 C
398 01-02-2013 00:00:00 6.26378 C 91.9921 % 5.06 C
399 02-02-2013 00:00:00 3.24097 C 87.7743 % 1.41 C
400 03-02-2013 00:00:00 3.41458 C 84.2292 % 1.01 C
Sensor: Nr:Datum:Temp:Feuchte:Taupunkt:
Aussen-T/F 401 04-02-2013 00:00:00 5.84792 C 89.4167 % 4.24 C
402 05-02-2013 00:00:00 4.44583 C 78.9896 % 1.13 C
403 06-02-2013 00:00:00 1.58819 C 91.4306 % 0.35 C
404 07-02-2013 00:00:00 1.88576 C 90.5625 % 0.51 C
405 08-02-2013 00:00:00 0.56424 C 91.6042 % -0.64 C
406 09-02-2013 00:00:00 -0.7941 C 88.5694 % -2.44 C
407 10-02-2013 00:00:00 -1.98681 C 82.7569 % -4.52 C
408 11-02-2013 00:00:00 -0.9316 C 70.8750 % -5.54 C
409 12-02-2013 00:00:00 -0.84618 C 72.2569 % -5.2 C
410 13-02-2013 00:00:00 -0.98125 C 73.6458 % -5.08 C
411 14-02-2013 00:00:00 -2.40382 C 83.6806 % -4.78 C
412 15-02-2013 00:00:00 0.91806 C 93.3993 % -0.02 C
413 16-02-2013 00:00:00 2.92847 C 95.7014 % 2.31 C
414 17-02-2013 00:00:00 2.97465 C 92.8229 % 1.93 C
415 18-02-2013 00:00:00 0.52847 C 89.7049 % -0.96 C
416 19-02-2013 00:00:00 0.79306 C 91.9375 % -0.36 C
417 20-02-2013 00:00:00 0.4316 C 79.5799 % -2.68 C
418 21-02-2013 00:00:00 -1.21979 C 76.7188 % -4.77 C
419 22-02-2013 00:00:00 -2.3066 C 72.8819 % -6.5 C
420 23-02-2013 00:00:00 -2.80139 C 85.8924 % -4.83 C
421 24-02-2013 00:00:00 -0.43958 C 90.7604 % -1.76 C
422 25-02-2013 00:00:00 0.88785 C 95.9375 % 0.32 C
423 26-02-2013 00:00:00 2.31215 C 94.4792 % 1.52 C
424 27-02-2013 00:00:00 1.69271 C 89.6667 % 0.18 C
425 28-02-2013 00:00:00 2.41771 C 88.3368 % 0.69 C
Sensor: Nr:Datum:Temp:Feuchte:Taupunkt:
Aussen-T/F 426 01-03-2013 00:00:00 2.75278 C 82.7014 % 0.11 C
427 02-03-2013 00:00:00 2.60208 C 75.2674 % -1.32 C
428 03-03-2013 00:00:00 1.90104 C 84.2535 % -0.47 C
429 04-03-2013 00:00:00 1.8934 C 82.4444 % -0.77 C
430 05-03-2013 00:00:00 2.56979 C 83.8611 % 0.12 C
431 06-03-2013 00:00:00 5.45035 C 78.0139 % 1.93 C
432 07-03-2013 00:00:00 8.96146 C 79.3646 % 5.59 C
433 08-03-2013 00:00:00 10.92049 C 83.9063 % 8.31 C
434 09-03-2013 00:00:00 10.42118 C 84.5660 % 7.94 C
435 10-03-2013 00:00:00 3.88611 C 90.5799 % 2.49 C
436 11-03-2013 00:00:00 -0.5191 C 89.0764 % -2.09 C
437 12-03-2013 00:00:00 -2.72153 C 90.2674 % -4.09 C
438 13-03-2013 00:00:00 -2.95907 C 81.1566 % -5.73 C
439 14-03-2013 00:00:00 -1.88944 C 86.0493 % -3.91 C
440 15-03-2013 00:00:00 -2.50139 C 79.4063 % -5.57 C
441 16-03-2013 00:00:00 2.40938 C 66.0729 % -3.26 C
442 17-03-2013 00:00:00 3.22014 C 86.2431 % 1.15 C
443 18-03-2013 00:00:00 4.14479 C 82.4410 % 1.43 C
444 19-03-2013 00:00:00 4.10313 C 82.7500 % 1.44 C
445 20-03-2013 00:00:00 3.59201 C 90.7639 % 2.23 C
446 21-03-2013 00:00:00 1.33993 C 86.7153 % -0.62 C
447 22-03-2013 00:00:00 1.7441 C 78.1840 % -1.64 C
448 23-03-2013 00:00:00 1.46875 C 67.2951 % -3.92 C
449 24-03-2013 00:00:00 0.48854 C 50.8924 % -8.48 C
450 25-03-2013 00:00:00 0.18681 C 56.3854 % -7.45 C
Sensor: Nr:Datum:Temp:Feuchte:Taupunkt:
Aussen-T/F 451 26-03-2013 00:00:00 0.3309 C 54.9167 % -7.65 C
452 27-03-2013 00:00:00 1.19896 C 57.4340 % -6.26 C
453 28-03-2013 00:00:00 2.07639 C 68.6563 % -3.07 C
454 29-03-2013 00:00:00 0.53715 C 86.8750 % -1.39 C
455 30-03-2013 00:00:00 1.50903 C 75.2361 % -2.39 C
456 31-03-2013 00:00:00 1.17246 C 77.9094 % -2.24 C
457 01-04-2013 00:00:00 1.44201 C 69.0382 % -3.6 C
458 02-04-2013 00:00:00 2.12708 C 62.2396 % -4.33 C
459 03-04-2013 00:00:00 1.88194 C 70.0521 % -2.99 C
460 04-04-2013 00:00:00 3.97465 C 65.6701 % -1.85 C
461 05-04-2013 00:00:00 2.45382 C 75.3299 % -1.46 C
462 06-04-2013 00:00:00 3.55104 C 83.4028 % 1.01 C
463 07-04-2013 00:00:00 3.40382 C 71.6181 % -1.23 C
464 08-04-2013 00:00:00 4.46979 C 71.6076 % -0.2 C
465 09-04-2013 00:00:00 5.89479 C 88.8681 % 4.2 C
466 10-04-2013 00:00:00 8.34653 C 86.5139 % 6.23 C
467 11-04-2013 00:00:00 12.25972 C 76.2674 % 8.21 C
468 12-04-2013 00:00:00 10.42708 C 83.9722 % 7.84 C
469 13-04-2013 00:00:00 11.30243 C 70.4826 % 6.14 C
470 14-04-2013 00:00:00 15.49271 C 69.5903 % 9.96 C
471 15-04-2013 00:00:00 15.52118 C 73.4931 % 10.81 C
472 16-04-2013 00:00:00 16.01215 C 73.3854 % 11.26 C
473 17-04-2013 00:00:00 17.14167 C 64.9028 % 10.49 C
474 18-04-2013 00:00:00 15.57153 C 62.1528 % 8.36 C
475 19-04-2013 00:00:00 11.46389 C 56.8333 % 3.21 C
Sensor: Nr:Datum:Temp:Feuchte:Taupunkt:
Aussen-T/F 476 20-04-2013 00:00:00 10.16944 C 61.6736 % 3.15 C
477 21-04-2013 00:00:00 10.71389 C 59.7014 % 3.21 C
478 22-04-2013 00:00:00 12.26562 C 60.0069 % 4.74 C
479 23-04-2013 00:00:00 12.48924 C 62.8681 % 5.62 C
480 24-04-2013 00:00:00 14.60278 C 69.3472 % 9.06 C
481 25-04-2013 00:00:00 17.28958 C 64.4965 % 10.54 C
482 26-04-2013 00:00:00 12.59896 C 84.6528 % 10.09 C
483 27-04-2013 00:00:00 6.70972 C 88.6111 % 4.97 C
484 28-04-2013 00:00:00 7.57118 C 83.3438 % 4.93 C
485 29-04-2013 00:00:00 11.20139 C 67.0556 % 5.32 C
486 30-04-2013 00:00:00 9.40104 C 78.5139 % 5.86 C
487 01-05-2013 00:00:00 12.25 C 80.0972 % 8.92 C
488 02-05-2013 00:00:00 15.26458 C 71.7535 % 10.2 C
489 03-05-2013 00:00:00 14.28056 C 76.8472 % 10.28 C
490 04-05-2013 00:00:00 15.30521 C 68.4132 % 9.53 C
491 05-05-2013 00:00:00 14.71458 C 67.0556 % 8.67 C
492 06-05-2013 00:00:00 15.4691 C 70.1458 % 10.06 C
493 07-05-2013 00:00:00 14.47708 C 86.2465 % 12.21 C
494 08-05-2013 00:00:00 15.69062 C 80.7188 % 12.39 C
495 09-05-2013 00:00:00 16.1566 C 79.2674 % 12.57 C
496 10-05-2013 00:00:00 13.28785 C 70.3924 % 8.02 C
497 11-05-2013 00:00:00 12.72431 C 79.9549 % 9.36 C
498 12-05-2013 00:00:00 9.44583 C 87.2049 % 7.43 C
499 13-05-2013 00:00:00 11.19688 C 87.3056 % 9.17 C
500 14-05-2013 00:00:00 12.63125 C 81.3576 % 9.53 C
Sensor: Nr:Datum:Temp:Feuchte:Taupunkt:
Aussen-T/F 501 15-05-2013 00:00:00 13.05694 C 84.4688 % 10.5 C
502 16-05-2013 00:00:00 13.25521 C 93.0174 % 12.15 C
503 17-05-2013 00:00:00 10.33125 C 94.0278 % 9.41 C
504 18-05-2013 00:00:00 13.12118 C 83.2813 % 10.35 C
505 19-05-2013 00:00:00 13.29792 C 84.1910 % 10.69 C
506 20-05-2013 00:00:00 10.92014 C 91.6771 % 9.62 C
507 21-05-2013 00:00:00 12.35104 C 85.9826 % 10.08 C
508 22-05-2013 00:00:00 9.34444 C 87.3438 % 7.35 C
509 23-05-2013 00:00:00 7.90764 C 85.7535 % 5.67 C
510 24-05-2013 00:00:00 7.60521 C 78.8576 % 4.18 C
511 25-05-2013 00:00:00 8.39687 C 79.6493 % 5.09 C
512 26-05-2013 00:00:00 8.03611 C 93.6493 % 7.08 C
513 27-05-2013 00:00:00 12.39201 C 76.8368 % 8.45 C
514 28-05-2013 00:00:00 13.87465 C 75.0903 % 9.54 C
515 29-05-2013 00:00:00 10.21285 C 92.6875 % 9.08 C
516 30-05-2013 00:00:00 11.70208 C 80.4896 % 8.46 C
517 31-05-2013 00:00:00 13.19792 C 90.3090 % 11.65 C
518 01-06-2013 00:00:00 12.09549 C 87.9410 % 10.16 C
519 02-06-2013 00:00:00 13.08125 C 66.3472 % 6.96 C
520 03-06-2013 00:00:00 12.7375 C 64.3750 % 6.19 C
521 04-06-2013 00:00:00 13.85833 C 72.3507 % 8.97 C
522 05-06-2013 00:00:00 16.28889 C 78.3125 % 12.51 C
523 06-06-2013 00:00:00 18.00868 C 68.3264 % 12.09 C
524 07-06-2013 00:00:00 18.14826 C 71.4236 % 12.9 C
525 08-06-2013 00:00:00 18.53125 C 79.0556 % 14.83 C
Sensor: Nr:Datum:Temp:Feuchte:Taupunkt:
Aussen-T/F 526 09-06-2013 00:00:00 15.18819 C 89.5868 % 13.49 C
527 10-06-2013 00:00:00 12.77396 C 94.5868 % 11.93 C
528 11-06-2013 00:00:00 15.40451 C 84.7708 % 12.86 C
529 12-06-2013 00:00:00 17.48576 C 83.4236 % 14.65 C
530 13-06-2013 00:00:00 18.45313 C 85.0625 % 15.9 C
531 14-06-2013 00:00:00 14.47917 C 78.2500 % 10.74 C
532 15-06-2013 00:00:00 15.22674 C 77.9653 % 11.41 C
533 16-06-2013 00:00:00 16.60104 C 70.9306 % 11.31 C
534 17-06-2013 00:00:00 20.99236 C 73.9583 % 16.17 C
535 18-06-2013 00:00:00 23.88576 C 78.5104 % 19.92 C
536 19-06-2013 00:00:00 24.9691 C 80.3924 % 21.36 C
537 20-06-2013 00:00:00 21.63299 C 83.6493 % 18.74 C
538 21-06-2013 00:00:00 17.72778 C 79.6563 % 14.17 C
539 22-06-2013 00:00:00 18.08576 C 74.9688 % 13.58 C
540 23-06-2013 00:00:00 16.03403 C 77.5938 % 12.12 C
541 24-06-2013 00:00:00 14.4184 C 80.7326 % 11.15 C
542 25-06-2013 00:00:00 13.24861 C 81.2049 % 10.1 C
543 26-06-2013 00:00:00 12.21597 C 78.8819 % 8.66 C
544 27-06-2013 00:00:00 12.77257 C 85.6111 % 10.42 C
545 28-06-2013 00:00:00 12.51979 C 89.5764 % 10.85 C
546 29-06-2013 00:00:00 15.31319 C 83.5000 % 12.54 C
547 30-06-2013 00:00:00 14.36458 C 77.9931 % 10.58 C
548 01-07-2013 00:00:00 18.46319 C 74.8715 % 13.93 C
549 02-07-2013 00:00:00 18.88542 C 76.4132 % 14.65 C
550 03-07-2013 00:00:00 17.18993 C 93.0868 % 16.06 C
Sensor: Nr:Datum:Temp:Feuchte:Taupunkt:
Aussen-T/F 551 04-07-2013 00:00:00 18.03542 C 87.4410 % 15.92 C
552 05-07-2013 00:00:00 19.17361 C 80.8785 % 15.81 C
553 06-07-2013 00:00:00 19.30833 C 81.3438 % 16.03 C
554 07-07-2013 00:00:00 20.55243 C 74.5069 % 15.86 C
555 08-07-2013 00:00:00 20.53924 C 71.9444 % 15.31 C
556 09-07-2013 00:00:00 20.80694 C 73.6597 % 15.93 C
557 10-07-2013 00:00:00 20.12292 C 72.3368 % 14.99 C
558 11-07-2013 00:00:00 17.10417 C 69.4097 % 11.47 C
559 12-07-2013 00:00:00 16.90868 C 73.6806 % 12.18 C
560 13-07-2013 00:00:00 17.26424 C 74.3160 % 12.66 C
561 14-07-2013 00:00:00 18.30139 C 74.2847 % 13.65 C
562 15-07-2013 00:00:00 18.85486 C 75.3333 % 14.4 C
563 16-07-2013 00:00:00 20.18438 C 72.0590 % 14.99 C
564 17-07-2013 00:00:00 20.29896 C 74.5729 % 15.63 C
565 18-07-2013 00:00:00 21.84757 C 69.7014 % 16.06 C
566 19-07-2013 00:00:00 22.12674 C 67.1042 % 15.74 C
567 20-07-2013 00:00:00 21.31076 C 69.5417 % 15.52 C
568 21-07-2013 00:00:00 22.30521 C 69.0000 % 16.34 C
569 22-07-2013 00:00:00 22.41562 C 70.3958 % 16.76 C
570 23-07-2013 00:00:00 21.37396 C 86.5069 % 19.03 C
571 24-07-2013 00:00:00 21.35972 C 80.1076 % 17.79 C
572 25-07-2013 00:00:00 20.88542 C 86.3472 % 18.52 C
573 26-07-2013 00:00:00 21.25729 C 95.1007 % 20.44 C
574 27-07-2013 00:00:00 23.54236 C 84.8646 % 20.85 C
575 28-07-2013 00:00:00 21.69965 C 82.3889 % 18.57 C
Sensor: Nr:Datum:Temp:Feuchte:Taupunkt:
Aussen-T/F 576 29-07-2013 00:00:00 19.41007 C 88.3993 % 17.44 C
577 30-07-2013 00:00:00 18.99028 C 79.0139 % 15.27 C
578 31-07-2013 00:00:00 20.83715 C 75.4653 % 16.34 C
579 01-08-2013 00:00:00 21.89653 C 75.0764 % 17.28 C
580 02-08-2013 00:00:00 23.37049 C 72.4132 % 18.13 C
581 03-08-2013 00:00:00 21.1934 C 85.6146 % 18.69 C
582 04-08-2013 00:00:00 19.79549 C 78.0382 % 15.86 C
583 05-08-2013 00:00:00 20.42639 C 78.9618 % 16.65 C
584 06-08-2013 00:00:00 19.98646 C 87.9132 % 17.92 C
585 07-08-2013 00:00:00 18.91562 C 91.5833 % 17.51 C
586 08-08-2013 00:00:00 16.92118 C 86.3229 % 14.62 C
587 09-08-2013 00:00:00 16.41597 C 86.1181 % 14.09 C
588 10-08-2013 00:00:00 18.10764 C 74.2986 % 13.46 C
589 11-08-2013 00:00:00 16.80278 C 69.1771 % 11.13 C
590 12-08-2013 00:00:00 15.88229 C 83.6007 % 13.11 C
591 13-08-2013 00:00:00 15.61319 C 81.7326 % 12.5 C
592 14-08-2013 00:00:00 14.4559 C 81.5660 % 11.34 C
593 15-08-2013 00:00:00 16.30035 C 77.9028 % 12.44 C
594 16-08-2013 00:00:00 17.96319 C 75.3750 % 13.55 C
595 17-08-2013 00:00:00 20.47965 C 70.5158 % 14.94 C
596 18-08-2013 00:00:00 19.29614 C 82.4596 % 16.23 C
597 19-08-2013 00:00:00 17.75764 C 80.2465 % 14.31 C
598 20-08-2013 00:00:00 14.96458 C 79.6111 % 11.47 C
599 21-08-2013 00:00:00 15.16285 C 81.7743 % 12.07 C
600 22-08-2013 00:00:00 16.33576 C 83.6111 % 13.56 C
Sensor: Nr:Datum:Temp:Feuchte:Taupunkt:
Aussen-T/F 601 23-08-2013 00:00:00 18.61667 C 76.7708 % 14.46 C
602 24-08-2013 00:00:00 16.10208 C 89.7396 % 14.42 C
603 25-08-2013 00:00:00 16.06806 C 95.2708 % 15.31 C
604 26-08-2013 00:00:00 15.16806 C 96.5451 % 14.62 C
605 27-08-2013 00:00:00 15.88472 C 89.9792 % 14.24 C
606 28-08-2013 00:00:00 15.65312 C 87.5035 % 13.59 C
607 29-08-2013 00:00:00 14.74062 C 90.2153 % 13.15 C
608 30-08-2013 00:00:00 15.73924 C 87.8472 % 13.73 C
609 31-08-2013 00:00:00 16.33229 C 86.2986 % 14.04 C
610 01-09-2013 00:00:00 14.50938 C 73.5035 % 9.83 C
611 02-09-2013 00:00:00 17.48924 C 69.9375 % 11.95 C
612 03-09-2013 00:00:00 18.08299 C 80.6319 % 14.7 C
613 04-09-2013 00:00:00 17.74583 C 85.1701 % 15.22 C
614 05-09-2013 00:00:00 18.47349 C 84.5181 % 15.82 C
615 06-09-2013 00:00:00 22.68615 C 74.2769 % 17.87 C
616 07-09-2013 00:00:00 18.36354 C 91.5208 % 16.96 C
617 08-09-2013 00:00:00 14.78542 C 93.9097 % 13.81 C
618 09-09-2013 00:00:00 14.16944 C 86.9965 % 12.04 C
619 10-09-2013 00:00:00 13.35073 C 82.4891 % 10.43 C
620 11-09-2013 00:00:00 13.00912 C 87.8066 % 11.04 C
621 12-09-2013 00:00:00 13.53472 C 92.7535 % 12.39 C
622 13-09-2013 00:00:00 14.67363 C 88.3553 % 12.77 C
623 14-09-2013 00:00:00 15.8191 C 93.1007 % 14.71 C
624 15-09-2013 00:00:00 14.41667 C 87.2500 % 12.33 C
625 16-09-2013 00:00:00 13.23333 C 81.3229 % 10.11 C
Sensor: Nr:Datum:Temp:Feuchte:Taupunkt:
Aussen-T/F 626 17-09-2013 00:00:00 10.58958 C 82.5833 % 7.75 C
627 18-09-2013 00:00:00 12.57951 C 92.8750 % 11.46 C
628 19-09-2013 00:00:00 11.89444 C 86.6076 % 9.73 C
629 20-09-2013 00:00:00 13.91806 C 85.7778 % 11.58 C
630 21-09-2013 00:00:00 12.20868 C 91.0000 % 10.78 C
631 22-09-2013 00:00:00 13.3788 C 90.7668 % 11.9 C
632 23-09-2013 00:00:00 15.46493 C 89.1076 % 13.68 C
633 24-09-2013 00:00:00 12.34792 C 94.6979 % 11.52 C
634 25-09-2013 00:00:00 14.08646 C 94.5347 % 13.22 C
635 26-09-2013 00:00:00 14.58924 C 91.1389 % 13.16 C
636 27-09-2013 00:00:00 11.25312 C 89.0660 % 9.52 C
637 28-09-2013 00:00:00 10.575 C 88.4286 % 8.74 C
638 29-09-2013 00:00:00 11.89028 C 85.1667 % 9.48 C
639 30-09-2013 00:00:00 9.80833 C 87.1910 % 7.78 C
640 01-10-2013 00:00:00 11.38264 C 80.5903 % 8.17 C
641 02-10-2013 00:00:00 9.01493 C 82.1111 % 6.13 C
642 03-10-2013 00:00:00 8.84479 C 80.9549 % 5.76 C
643 04-10-2013 00:00:00 11.33993 C 91.6215 % 10.03 C
644 05-10-2013 00:00:00 12.69583 C 97.5486 % 12.32 C
645 06-10-2013 00:00:00 13.60313 C 92.6910 % 12.44 C
646 07-10-2013 00:00:00 13.21667 C 94.6806 % 12.38 C
647 08-10-2013 00:00:00 13.44791 C 95.3505 % 12.72 C
648 09-10-2013 00:00:00 13.86667 C 91.5938 % 12.52 C
649 10-10-2013 00:00:00 8.4625 C 94.6285 % 7.65 C
650 11-10-2013 00:00:00 6.86042 C 97.1285 % 6.44 C
Sensor: Nr:Datum:Temp:Feuchte:Taupunkt:
Aussen-T/F 651 12-10-2013 00:00:00 6.31215 C 95.1910 % 5.6 C
652 13-10-2013 00:00:00 7.69167 C 90.0208 % 6.16 C
653 14-10-2013 00:00:00 9.89091 C 92.2182 % 8.69 C
654 15-10-2013 00:00:00 10.43275 C 94.2113 % 9.54 C
655 16-10-2013 00:00:00 10.04523 C 95.8799 % 9.42 C
656 17-10-2013 00:00:00 12.70972 C 88.6771 % 10.89 C
657 18-10-2013 00:00:00 11.80868 C 95.7083 % 11.15 C
658 19-10-2013 00:00:00 11.72702 C 95.4877 % 11.03 C
659 20-10-2013 00:00:00 15.28507 C 93.8021 % 14.29 C
660 21-10-2013 00:00:00 15.075 C 89.9861 % 13.45 C
661 22-10-2013 00:00:00 15.7614 C 91.7404 % 14.42 C
662 23-10-2013 00:00:00 15.81476 C 92.6790 % 14.63 C
663 24-10-2013 00:00:00 13.67431 C 95.5069 % 12.97 C
664 25-10-2013 00:00:00 13.01701 C 96.8958 % 12.54 C
665 26-10-2013 00:00:00 16.41144 C 95.1808 % 15.64 C
666 27-10-2013 00:00:00 14.94896 C 83.9028 % 12.25 C
667 28-10-2013 00:00:00 15.40962 C 78.1385 % 11.62 C
668 29-10-2013 00:00:00 11.12569 C 77.4901 % 7.34 C
669 30-10-2013 00:00:00 7.81825 C 86.6702 % 5.74 C
670 31-10-2013 00:00:00 5.27708 C 94.3854 % 4.45 C
671 01-11-2013 00:00:00 9.4316 C 89.5208 % 7.8 C
672 02-11-2013 00:00:00 12.79889 C 90.4354 % 11.27 C
673 03-11-2013 00:00:00 9.93611 C 83.6701 % 7.31 C
674 04-11-2013 00:00:00 9.80526 C 87.0912 % 7.76 C
675 05-11-2013 00:00:00 6.72153 C 87.5556 % 4.81 C
Sensor: Nr:Datum:Temp:Feuchte:Taupunkt:
Aussen-T/F 676 06-11-2013 00:00:00 10.70215 C 88.7348 % 8.92 C
677 07-11-2013 00:00:00 15.04132 C 84.5243 % 12.46 C
678 08-11-2013 00:00:00 11.92093 C 93.0372 % 10.83 C
679 09-11-2013 00:00:00 9.48785 C 80.9931 % 6.39 C
680 10-11-2013 00:00:00 6.68715 C 90.9653 % 5.32 C
681 11-11-2013 00:00:00 4.00764 C 96.3542 % 3.48 C
682 12-11-2013 00:00:00 4.41146 C 93.7951 % 3.5 C
683 13-11-2013 00:00:00 6.28491 C 93.5579 % 5.32 C
684 14-11-2013 00:00:00 3.2816 C 95.0833 % 2.57 C
685 15-11-2013 00:00:00 4.99201 C 90.5035 % 3.57 C
686 16-11-2013 00:00:00 3.05 C 91.8507 % 1.86 C
687 17-11-2013 00:00:00 3.2184 C 94.6285 % 2.44 C
688 18-11-2013 00:00:00 5.38287 C 94.0916 % 4.51 C
689 19-11-2013 00:00:00 6.22 C 91.5647 % 4.95 C
690 20-11-2013 00:00:00 3.96643 C 91.7483 % 2.75 C
691 21-11-2013 00:00:00 4.05603 C 89.4310 % 2.48 C
692 22-11-2013 00:00:00 4.42 C 86.5545 % 2.38 C
693 23-11-2013 00:00:00 7.03092 C 87.0000 % 5.02 C
694 24-11-2013 00:00:00 5.71435 C 88.4739 % 3.96 C
695 25-11-2013 00:00:00 2.65439 C 93.3216 % 1.69 C
696 26-11-2013 00:00:00 0.53125 C 94.5590 % -0.24 C
697 27-11-2013 00:00:00 0.63854 C 92.5035 % -0.43 C
698 28-11-2013 00:00:00 3.45709 C 94.3022 % 2.63 C
699 29-11-2013 00:00:00 5.6434 C 91.5833 % 4.38 C
700 30-11-2013 00:00:00 4.32604 C 93.7951 % 3.42 C
Sensor: Nr:Datum:Temp:Feuchte:Taupunkt:
Aussen-T/F 701 01-12-2013 00:00:00 5.01254 C 94.7178 % 4.24 C
702 02-12-2013 00:00:00 4.76458 C 93.0486 % 3.74 C
703 03-12-2013 00:00:00 -0.45729 C 97.1806 % -0.85 C
704 04-12-2013 00:00:00 3.27917 C 91.8924 % 2.09 C
705 05-12-2013 00:00:00 3.93475 C 87.9291 % 2.12 C
706 06-12-2013 00:00:00 3.76181 C 74.9583 % -0.26 C
707 07-12-2013 00:00:00 4.38715 C 85.8194 % 2.23 C
708 08-12-2013 00:00:00 6.92188 C 87.3785 % 4.97 C
709 09-12-2013 00:00:00 6.42222 C 84.1806 % 3.95 C
710 10-12-2013 00:00:00 3.24896 C 95.9236 % 2.66 C
711 11-12-2013 00:00:00 3.72465 C 96.5903 % 3.23 C
712 12-12-2013 00:00:00 4.08993 C 92.2118 % 2.94 C
713 13-12-2013 00:00:00 2.65694 C 90.5313 % 1.27 C
714 14-12-2013 00:00:00 3.58986 C 92.6923 % 2.52 C
715 15-12-2013 00:00:00 4.99688 C 85.9340 % 2.84 C
716 16-12-2013 00:00:00 1.49676 C 94.6511 % 0.73 C
717 17-12-2013 00:00:00 1.25451 C 95.3924 % 0.6 C
718 18-12-2013 00:00:00 4.19965 C 94.2153 % 3.35 C
719 19-12-2013 00:00:00 8.13715 C 88.2813 % 6.32 C
720 20-12-2013 00:00:00 4.38403 C 92.2708 % 3.24 C
721 21-12-2013 00:00:00 4.81354 C 81.8229 % 1.98 C
722 22-12-2013 00:00:00 8.81493 C 82.7222 % 6.04 C
723 23-12-2013 00:00:00 8.42341 C 85.6230 % 6.16 C
724 24-12-2013 00:00:00 11.57579 C 73.6140 % 7.03 C
725 25-12-2013 00:00:00 8.41944 C 92.4444 % 7.27 C
Sensor: Nr:Datum:Temp:Feuchte:Taupunkt:
Aussen-T/F 726 26-12-2013 00:00:00 6.06579 C 94.8195 % 5.3 C
727 27-12-2013 00:00:00 6.6549 C 85.1608 % 4.34 C
728 28-12-2013 00:00:00 9.14444 C 90.1181 % 7.61 C
729 29-12-2013 00:00:00 4.76463 C 93.9695 % 3.88 C
730 30-12-2013 00:00:00 4.17107 C 89.7934 % 2.65 C
731 31-12-2013 00:00:00 2.91045 C 89.5522 % 1.37 C

Maximal/Minimal-Werte vom 01.01.2012 - 31.12.2013

Sensor Min Max Avg
Temp
(Aussen-T/F)
-15.3 °C
07-02-2012  08:00:00
36.9 °C
19-08-2012  16:30:00
10.17 °C
Feuchte
(Aussen-T/F)
20 %
25-03-2012  18:05:00
100 %
07-10-2012  03:05:00
82.36 %
Taupunkt
(Aussen-T/F)
-15.35 C
02-02-2012  00:00:00
21.36 C
19-06-2013  00:00:00
7.15 C

Die Daten stammen von einer Davis Vantage Pro 2 Wetter-Station und werden unter Linux mit der Software wview2wettercgi und aufbereitet. Alle Angaben erfolgen ohne Gewähr für ihre Vollständigkeit oder Richtigkeit.
Kontakt: Rainer Krienke krienke@uni-koblenz.de . Meine Webseiten an der Uni Koblenz oder privat.
Version: $Revision: 0.78 $